createdAt,value
2022-12-05T00:01:43.758Z,5.28
2022-12-05T00:04:14.064Z,5.29
2022-12-05T00:06:43.093Z,5.33
2022-12-05T00:09:13.821Z,5.38
2022-12-05T00:11:44.409Z,5.39
2022-12-05T00:14:13.232Z,5.41
2022-12-05T00:16:43.569Z,5.42
2022-12-05T00:19:15.226Z,5.39
2022-12-05T00:21:43.788Z,5.40
2022-12-05T00:24:15.811Z,5.42
2022-12-05T00:26:43.367Z,5.41
2022-12-05T00:29:13.122Z,5.31
2022-12-05T00:31:43.135Z,5.38
2022-12-05T00:34:12.952Z,5.42
2022-12-05T00:36:42.922Z,5.40
2022-12-05T00:39:14.352Z,5.44
2022-12-05T00:41:43.513Z,5.46
2022-12-05T00:44:13.065Z,5.49
2022-12-05T00:46:42.857Z,5.47
2022-12-05T00:49:13.003Z,5.46
2022-12-05T00:54:15.311Z,5.39
2022-12-05T00:56:43.652Z,5.40
2022-12-05T00:59:18.003Z,5.39
2022-12-05T01:01:44.700Z,5.40
2022-12-05T01:04:15.323Z,5.34
2022-12-05T01:06:43.781Z,5.23
2022-12-05T01:09:15.941Z,5.17
2022-12-05T01:11:43.625Z,5.20
2022-12-05T01:14:15.556Z,5.26
2022-12-05T01:16:45.314Z,5.30
2022-12-05T01:19:20.483Z,5.38
2022-12-05T01:21:43.701Z,5.44
2022-12-05T01:24:13.948Z,5.45
2022-12-05T01:26:43.922Z,5.51
2022-12-05T01:29:15.657Z,5.60
2022-12-05T01:31:44.087Z,5.61
2022-12-05T01:34:15.550Z,5.67
2022-12-05T01:39:13.703Z,5.66
2022-12-05T01:41:45.260Z,5.65
2022-12-05T01:44:32.768Z,5.66
2022-12-05T01:46:45.425Z,5.67
2022-12-05T01:49:17.112Z,5.69
2022-12-05T01:51:46.226Z,5.74
2022-12-05T01:54:14.652Z,5.76
2022-12-05T01:59:13.789Z,5.73
2022-12-05T02:04:13.850Z,5.81
2022-12-05T02:06:43.317Z,5.79
2022-12-05T02:09:13.215Z,5.80
2022-12-05T02:11:51.623Z,5.81
2022-12-05T02:14:23.883Z,5.79
2022-12-05T02:16:51.990Z,5.82
2022-12-05T02:19:31.666Z,5.86
2022-12-05T02:22:02.747Z,5.87
2022-12-05T02:26:59.560Z,5.89
2022-12-05T02:29:29.596Z,5.85
2022-12-05T02:31:49.146Z,5.83
2022-12-05T02:34:22.342Z,5.84
2022-12-05T02:36:50.035Z,5.86
2022-12-05T02:39:17.710Z,5.92
2022-12-05T02:41:50.000Z,5.85
2022-12-05T02:44:16.504Z,5.90
2022-12-05T02:46:46.607Z,5.89
2022-12-05T02:49:19.169Z,5.97
2022-12-05T02:51:46.783Z,5.94
2022-12-05T02:56:45.226Z,5.90
2022-12-05T02:59:16.073Z,5.85
2022-12-05T03:01:44.710Z,5.87
2022-12-05T03:04:15.586Z,5.74
2022-12-05T03:06:47.838Z,5.80
2022-12-05T03:09:15.646Z,5.85
2022-12-05T03:11:47.748Z,5.91
2022-12-05T03:14:20.642Z,5.87
2022-12-05T03:16:47.997Z,5.94
2022-12-05T03:19:17.963Z,5.88
2022-12-05T03:21:51.041Z,5.79
2022-12-05T03:24:14.210Z,5.84
2022-12-05T03:26:54.174Z,5.94
2022-12-05T03:29:21.858Z,5.91
2022-12-05T03:31:47.330Z,5.87
2022-12-05T03:34:19.947Z,5.92
2022-12-05T03:39:20.739Z,5.90
2022-12-05T03:41:53.565Z,6.00
2022-12-05T03:44:18.318Z,5.99
2022-12-05T03:46:47.768Z,6.01
2022-12-05T03:49:19.200Z,6.05
2022-12-05T03:51:49.085Z,5.96
2022-12-05T03:54:17.608Z,6.00
2022-12-05T03:56:47.206Z,6.08
2022-12-05T03:59:19.462Z,6.07
2022-12-05T04:01:46.194Z,6.04
2022-12-05T04:04:18.006Z,6.03
2022-12-05T04:06:47.429Z,6.02
2022-12-05T04:09:18.894Z,6.06
2022-12-05T04:11:50.224Z,6.01
2022-12-05T04:14:16.287Z,5.99
2022-12-05T04:16:58.919Z,6.01
2022-12-05T04:19:17.633Z,6.04
2022-12-05T04:21:46.564Z,6.09
2022-12-05T04:24:26.615Z,6.08
2022-12-05T04:26:47.272Z,6.14
2022-12-05T04:29:20.947Z,6.22
2022-12-05T04:31:49.088Z,6.12
2022-12-05T04:34:15.132Z,6.13
2022-12-05T04:36:47.168Z,6.10
2022-12-05T04:39:18.386Z,6.19
2022-12-05T04:41:47.922Z,6.20
2022-12-05T04:46:45.271Z,6.18
2022-12-05T04:49:17.506Z,6.24
2022-12-05T04:51:45.902Z,6.16
2022-12-05T04:54:18.867Z,6.17
2022-12-05T04:56:45.946Z,6.26
2022-12-05T05:01:47.791Z,6.30
2022-12-05T05:04:19.450Z,6.31
2022-12-05T05:06:43.230Z,6.26
2022-12-05T05:09:12.974Z,6.25
2022-12-05T05:11:43.207Z,6.26
2022-12-05T05:14:13.128Z,6.30
2022-12-05T05:16:43.895Z,6.29
2022-12-05T05:19:12.942Z,6.30
2022-12-05T05:21:43.038Z,6.33
2022-12-05T05:24:14.527Z,6.32
2022-12-05T05:26:44.803Z,6.35
2022-12-05T05:29:14.418Z,6.33
2022-12-05T05:31:44.104Z,6.34
2022-12-05T05:36:43.147Z,6.28
2022-12-05T05:39:14.317Z,6.25
2022-12-05T05:44:13.028Z,6.28
2022-12-05T05:46:43.183Z,6.22
2022-12-05T05:49:13.116Z,6.20
2022-12-05T05:51:43.044Z,6.26
2022-12-05T05:54:12.943Z,6.25
2022-12-05T05:56:43.179Z,6.28
2022-12-05T06:01:43.271Z,6.30
2022-12-05T06:04:13.078Z,6.28
2022-12-05T06:06:42.968Z,6.32
2022-12-05T06:09:13.054Z,6.30
2022-12-05T06:11:43.012Z,6.27
2022-12-05T06:14:12.969Z,6.25
2022-12-05T06:16:43.191Z,6.33
2022-12-05T06:19:13.156Z,6.26
2022-12-05T06:21:43.149Z,6.33
2022-12-05T06:24:12.968Z,6.30
2022-12-05T06:26:42.972Z,6.23
2022-12-05T06:29:13.121Z,6.34
2022-12-05T06:31:43.069Z,6.18
2022-12-05T06:34:13.215Z,6.27
2022-12-05T06:36:43.292Z,6.32
2022-12-05T06:39:13.114Z,6.28
2022-12-05T06:41:43.157Z,6.25
2022-12-05T06:46:43.348Z,6.30
2022-12-05T06:49:12.980Z,6.38
2022-12-05T06:51:43.432Z,6.35
2022-12-05T06:54:13.868Z,6.30
2022-12-05T06:56:43.088Z,6.31
2022-12-05T06:59:13.174Z,6.36
2022-12-05T07:01:45.445Z,6.39
2022-12-05T07:04:15.239Z,6.38
2022-12-05T07:06:49.873Z,6.29
2022-12-05T07:09:12.999Z,6.23
2022-12-05T07:11:47.071Z,6.30
2022-12-05T07:14:31.213Z,6.23
2022-12-05T07:16:43.066Z,6.27
2022-12-05T07:19:13.168Z,6.29
2022-12-05T07:24:13.069Z,6.32
2022-12-05T07:26:43.030Z,6.27
2022-12-05T07:29:12.998Z,6.24
2022-12-05T07:31:43.321Z,6.26
2022-12-05T07:34:13.469Z,6.38
2022-12-05T07:36:43.011Z,6.39
2022-12-05T07:41:43.069Z,6.30
2022-12-05T07:44:13.559Z,6.31
2022-12-05T07:49:14.850Z,6.34
2022-12-05T07:51:43.156Z,6.40
2022-12-05T07:54:13.131Z,6.42
2022-12-05T07:56:47.609Z,6.40
2022-12-05T08:01:43.195Z,6.46
2022-12-05T08:04:15.567Z,6.45
2022-12-05T08:06:42.977Z,6.42
2022-12-05T08:09:13.886Z,6.45
2022-12-05T08:11:46.979Z,6.39
2022-12-05T08:14:13.204Z,6.43
2022-12-05T08:16:43.104Z,6.45
2022-12-05T08:19:13.316Z,6.48
2022-12-05T08:21:43.343Z,6.49
2022-12-05T08:24:14.001Z,6.39
2022-12-05T08:26:43.324Z,6.46
2022-12-05T08:29:14.434Z,6.40
2022-12-05T08:31:46.225Z,6.39
2022-12-05T08:34:14.235Z,6.49
2022-12-05T08:36:43.624Z,6.50
2022-12-05T08:41:44.451Z,6.53
2022-12-05T08:44:16.100Z,6.47
2022-12-05T08:46:45.398Z,6.52
2022-12-05T08:49:13.509Z,6.51
2022-12-05T08:51:43.258Z,6.47
2022-12-05T08:54:13.736Z,6.40
2022-12-05T08:56:43.285Z,6.46
2022-12-05T08:59:13.228Z,6.48
2022-12-05T09:01:43.157Z,6.52
2022-12-05T09:04:13.055Z,6.56
2022-12-05T09:06:43.373Z,6.58
2022-12-05T09:11:47.855Z,6.50
2022-12-05T09:14:13.984Z,6.49
2022-12-05T09:16:45.509Z,6.56
2022-12-05T09:19:15.510Z,6.57
2022-12-05T09:21:43.666Z,6.56
2022-12-05T09:24:13.922Z,6.59
2022-12-05T09:26:43.210Z,6.61
2022-12-05T09:29:17.076Z,6.60
2022-12-05T09:31:44.663Z,6.51
2022-12-05T09:34:14.275Z,6.53
2022-12-05T09:36:43.262Z,6.54
2022-12-05T09:42:07.767Z,6.52
2022-12-05T09:44:19.517Z,6.60
2022-12-05T09:46:49.898Z,6.59
2022-12-05T09:49:13.581Z,6.61
2022-12-05T09:51:47.718Z,6.66
2022-12-05T09:54:14.402Z,6.64
2022-12-05T09:56:44.299Z,6.68
2022-12-05T09:59:15.798Z,6.60
2022-12-05T10:01:51.381Z,6.66
2022-12-05T10:04:28.653Z,6.69
2022-12-05T10:06:51.953Z,6.71
2022-12-05T10:09:29.890Z,6.74
2022-12-05T10:11:49.769Z,6.79
2022-12-05T10:14:22.520Z,6.66
2022-12-05T10:16:47.722Z,6.76
2022-12-05T10:19:17.931Z,6.83
2022-12-05T10:21:50.121Z,6.84
2022-12-05T10:24:17.491Z,6.85
2022-12-05T10:26:45.334Z,6.73
2022-12-05T10:29:25.298Z,6.80
2022-12-05T10:31:46.197Z,6.86
2022-12-05T10:34:22.543Z,6.94
2022-12-05T10:39:13.275Z,6.93
2022-12-05T10:41:43.186Z,6.86
2022-12-05T10:44:13.260Z,6.82
2022-12-05T10:46:43.579Z,6.83
2022-12-05T10:49:13.106Z,6.80
2022-12-05T10:54:17.481Z,6.83
2022-12-05T10:56:46.394Z,6.77
2022-12-05T10:59:15.873Z,6.73
2022-12-05T11:01:46.541Z,6.77
2022-12-05T11:04:24.453Z,6.79
2022-12-05T11:06:51.177Z,6.85
2022-12-05T11:09:18.855Z,6.82
2022-12-05T11:11:58.065Z,6.87
2022-12-05T11:14:22.898Z,6.84
2022-12-05T11:16:52.119Z,6.85
2022-12-05T11:19:25.282Z,6.90
2022-12-05T11:21:43.676Z,6.82
2022-12-05T11:24:20.956Z,6.89
2022-12-05T11:26:44.588Z,6.97
2022-12-05T11:29:31.673Z,6.78
2022-12-05T11:31:50.991Z,6.79
2022-12-05T11:34:20.276Z,6.92
2022-12-05T11:36:49.728Z,6.82
2022-12-05T11:39:13.737Z,6.80
2022-12-05T11:41:56.821Z,6.87
2022-12-05T11:44:27.586Z,6.95
2022-12-05T11:46:56.110Z,6.98
2022-12-05T11:49:26.742Z,7.02
2022-12-05T11:51:49.510Z,6.94
2022-12-05T11:55:03.532Z,6.95
2022-12-05T11:56:49.720Z,6.99
2022-12-05T11:59:28.700Z,6.97
2022-12-05T12:01:53.912Z,6.99
2022-12-05T12:06:53.101Z,7.00
2022-12-05T12:09:25.726Z,7.03
2022-12-05T12:11:48.748Z,7.06
2022-12-05T12:14:24.731Z,7.03
2022-12-05T12:16:52.801Z,7.04
2022-12-05T12:19:29.717Z,7.07
2022-12-05T12:21:55.839Z,7.08
2022-12-05T12:24:23.564Z,7.01
2022-12-05T12:29:24.243Z,7.02
2022-12-05T12:31:58.626Z,6.95
2022-12-05T12:34:32.947Z,6.89
2022-12-05T12:36:47.727Z,6.97
2022-12-05T12:41:56.399Z,6.91
2022-12-05T12:44:32.903Z,6.90
2022-12-05T12:46:50.079Z,6.95
2022-12-05T12:49:28.485Z,6.99
2022-12-05T12:54:54.835Z,6.95
2022-12-05T12:56:53.107Z,6.96
2022-12-05T12:59:29.970Z,6.81
2022-12-05T13:01:51.673Z,6.76
2022-12-05T13:04:16.852Z,6.87
2022-12-05T13:06:49.598Z,6.88
2022-12-05T13:09:18.808Z,6.92
2022-12-05T13:11:45.986Z,6.88
2022-12-05T13:14:16.577Z,6.81
2022-12-05T13:16:49.345Z,6.87
2022-12-05T13:21:44.954Z,6.89
2022-12-05T13:24:13.779Z,6.91
2022-12-05T13:26:47.349Z,6.94
2022-12-05T13:29:20.409Z,6.95
2022-12-05T13:34:33.219Z,6.90
2022-12-05T13:36:52.970Z,6.89
2022-12-05T13:39:29.997Z,6.94
2022-12-05T13:41:55.402Z,6.90
2022-12-05T13:44:24.754Z,6.93
2022-12-05T13:49:17.733Z,6.94
2022-12-05T13:51:44.517Z,6.85
2022-12-05T13:54:18.531Z,6.81
2022-12-05T13:56:49.279Z,6.83
2022-12-05T13:59:34.525Z,6.85
2022-12-05T14:01:51.986Z,6.81
2022-12-05T14:04:32.902Z,6.85
2022-12-05T14:09:27.669Z,6.79
2022-12-05T14:12:04.487Z,6.83
2022-12-05T14:14:33.005Z,6.84
2022-12-05T14:16:44.188Z,6.81
2022-12-05T14:19:34.192Z,6.76
2022-12-05T14:21:52.966Z,6.82
2022-12-05T14:24:24.874Z,6.80
2022-12-05T14:29:32.933Z,6.84
2022-12-05T14:32:04.490Z,6.83
2022-12-05T14:34:21.315Z,6.79
2022-12-05T14:36:52.300Z,6.83
2022-12-05T14:39:19.928Z,6.80
2022-12-05T14:41:46.535Z,6.76
2022-12-05T14:44:18.383Z,6.70
2022-12-05T14:46:44.678Z,6.64
2022-12-05T14:49:36.827Z,6.68
2022-12-05T14:51:45.100Z,6.73
2022-12-05T14:54:16.753Z,6.67
2022-12-05T14:56:45.873Z,6.72
2022-12-05T14:59:23.954Z,6.64
2022-12-05T15:01:49.040Z,6.67
2022-12-05T15:04:19.251Z,6.58
2022-12-05T15:06:48.662Z,6.68
2022-12-05T15:09:36.956Z,6.69
2022-12-05T15:11:43.485Z,6.68
2022-12-05T15:14:20.664Z,6.71
2022-12-05T15:16:47.571Z,6.72
2022-12-05T15:19:18.103Z,6.69
2022-12-05T15:21:48.003Z,6.76
2022-12-05T15:24:14.219Z,6.69
2022-12-05T15:26:48.014Z,6.66
2022-12-05T15:29:16.649Z,6.70
2022-12-05T15:31:47.683Z,6.68
2022-12-05T15:34:17.804Z,6.63
2022-12-05T15:36:49.641Z,6.67
2022-12-05T15:39:22.616Z,6.69
2022-12-05T15:41:44.310Z,6.66
2022-12-05T15:44:13.353Z,6.62
2022-12-05T15:46:43.235Z,6.55
2022-12-05T15:49:20.105Z,6.61
2022-12-05T15:54:16.821Z,6.66
2022-12-05T15:56:48.133Z,6.61
2022-12-05T15:59:19.428Z,6.62
2022-12-05T16:01:50.846Z,6.59
2022-12-05T16:04:18.531Z,6.62
2022-12-05T16:06:46.764Z,6.61
2022-12-05T16:09:16.003Z,6.63
2022-12-05T16:14:21.558Z,6.64
2022-12-05T16:16:43.406Z,6.61
2022-12-05T16:19:15.648Z,6.67
2022-12-05T16:21:45.451Z,6.51
2022-12-05T16:24:18.000Z,6.50
2022-12-05T16:26:57.867Z,6.52
2022-12-05T16:29:25.362Z,6.58
2022-12-05T16:31:43.792Z,6.64
2022-12-05T16:36:46.286Z,6.63
2022-12-05T16:39:19.227Z,6.64
2022-12-05T16:41:43.552Z,6.66
2022-12-05T16:44:33.006Z,6.67
2022-12-05T16:46:45.138Z,6.56
2022-12-05T16:49:19.350Z,6.62
2022-12-05T16:51:45.307Z,6.65
2022-12-05T16:54:13.164Z,6.49
2022-12-05T16:56:43.170Z,6.59
2022-12-05T16:59:21.922Z,6.51
2022-12-05T17:01:43.394Z,6.50
2022-12-05T17:04:13.225Z,6.55
2022-12-05T17:06:43.305Z,6.61
2022-12-05T17:09:13.175Z,6.56
2022-12-05T17:11:47.108Z,6.59
2022-12-05T17:14:15.055Z,6.53
2022-12-05T17:16:44.089Z,6.56
2022-12-05T17:19:13.558Z,6.55
2022-12-05T17:21:43.814Z,6.61
2022-12-05T17:24:15.763Z,6.58
2022-12-05T17:26:43.886Z,6.57
2022-12-05T17:31:43.328Z,6.52
2022-12-05T17:34:15.183Z,6.48
2022-12-05T17:36:43.804Z,6.56
2022-12-05T17:39:13.222Z,6.58
2022-12-05T17:41:43.172Z,6.64
2022-12-05T17:46:43.500Z,6.62
2022-12-05T17:49:15.132Z,6.58
2022-12-05T17:52:05.550Z,6.60
2022-12-05T17:54:13.477Z,6.63
2022-12-05T17:56:43.187Z,6.60
2022-12-05T17:59:13.311Z,6.62
2022-12-05T18:04:13.466Z,6.60
2022-12-05T18:06:43.210Z,6.59
2022-12-05T18:09:14.854Z,6.55
2022-12-05T18:11:43.624Z,6.57
2022-12-05T18:14:13.167Z,6.55
2022-12-05T18:16:43.552Z,6.50
2022-12-05T18:19:13.181Z,6.57
2022-12-05T18:21:43.402Z,6.60
2022-12-05T18:24:13.200Z,6.50
2022-12-05T18:26:43.180Z,6.51
2022-12-05T18:29:13.313Z,6.53
2022-12-05T18:34:13.244Z,6.56
2022-12-05T18:36:43.332Z,6.57
2022-12-05T18:39:13.752Z,6.61
2022-12-05T18:41:43.546Z,6.58
2022-12-05T18:44:13.205Z,6.53
2022-12-05T18:46:43.175Z,6.57
2022-12-05T18:49:13.673Z,6.56
2022-12-05T18:51:43.212Z,6.47
2022-12-05T18:54:13.587Z,6.49
2022-12-05T18:56:45.103Z,6.50
2022-12-05T18:59:15.559Z,6.55
2022-12-05T19:01:44.572Z,6.54
2022-12-05T19:06:48.104Z,6.55
2022-12-05T19:09:15.779Z,6.57
2022-12-05T19:11:47.772Z,6.46
2022-12-05T19:14:14.249Z,6.51
2022-12-05T19:16:44.516Z,6.57
2022-12-05T19:19:14.420Z,6.61
2022-12-05T19:21:44.439Z,6.62
2022-12-05T19:24:15.920Z,6.63
2022-12-05T19:29:14.383Z,6.62
2022-12-05T19:34:13.382Z,6.63
2022-12-05T19:36:44.993Z,6.64
2022-12-05T19:39:15.581Z,6.63
2022-12-05T19:46:43.727Z,6.61
2022-12-05T19:49:14.706Z,6.62
2022-12-05T19:51:44.129Z,6.63
2022-12-05T19:54:16.680Z,6.57
2022-12-05T19:59:14.452Z,6.58
2022-12-05T20:01:43.947Z,6.56
2022-12-05T20:04:15.314Z,6.49
2022-12-05T20:06:45.349Z,6.50
2022-12-05T20:09:16.633Z,6.53
2022-12-05T20:11:49.501Z,6.54
2022-12-05T20:14:14.164Z,6.47
2022-12-05T20:16:43.410Z,6.48
2022-12-05T20:19:13.705Z,6.52
2022-12-05T20:26:44.044Z,6.46
2022-12-05T20:29:13.245Z,6.48
2022-12-05T20:31:43.306Z,6.49
2022-12-05T20:34:14.226Z,6.50
2022-12-05T20:36:43.216Z,6.51
2022-12-05T20:39:15.441Z,6.38
2022-12-05T20:41:43.936Z,6.46
2022-12-05T20:44:14.804Z,6.47
2022-12-05T20:49:13.750Z,6.40
2022-12-05T20:51:45.508Z,6.46
2022-12-05T20:54:15.714Z,6.49
2022-12-05T20:56:44.448Z,6.42
2022-12-05T20:59:13.957Z,6.44
2022-12-05T21:01:43.483Z,6.42
2022-12-05T21:06:45.031Z,6.44
2022-12-05T21:09:17.284Z,6.47
2022-12-05T21:11:43.679Z,6.46
2022-12-05T21:14:13.875Z,6.47
2022-12-05T21:16:43.249Z,6.49
2022-12-05T21:19:13.583Z,6.53
2022-12-05T21:21:43.283Z,6.57
2022-12-05T21:26:43.378Z,6.54
2022-12-05T21:31:44.286Z,6.56
2022-12-05T21:36:46.404Z,6.57
2022-12-05T21:39:14.620Z,6.51
2022-12-05T21:41:43.335Z,6.52
2022-12-05T21:46:43.589Z,6.54
2022-12-05T21:49:13.510Z,6.55
2022-12-05T21:51:43.286Z,6.56
2022-12-05T21:56:44.345Z,6.57
2022-12-05T21:59:13.463Z,6.55
2022-12-05T22:01:43.413Z,6.57
2022-12-05T22:04:13.288Z,6.56
2022-12-05T22:06:43.267Z,6.55
2022-12-05T22:09:13.538Z,6.56
2022-12-05T22:11:43.364Z,6.57
2022-12-05T22:16:43.678Z,6.53
2022-12-05T22:21:43.367Z,6.57
2022-12-05T22:24:13.615Z,6.60
2022-12-05T22:26:43.268Z,6.49
2022-12-05T22:29:13.295Z,6.52
2022-12-05T22:31:43.464Z,6.53
2022-12-05T22:34:14.386Z,6.47
2022-12-05T22:36:43.372Z,6.48
2022-12-05T22:39:13.289Z,6.43
2022-12-05T22:41:43.974Z,6.51
2022-12-05T22:44:13.436Z,6.55
2022-12-05T22:46:43.373Z,6.54
2022-12-05T22:49:13.250Z,6.55
2022-12-05T22:51:43.293Z,6.58
2022-12-05T22:54:13.409Z,6.59
2022-12-05T22:56:43.512Z,6.58
2022-12-05T23:04:13.714Z,6.57
2022-12-05T23:09:13.596Z,6.56
2022-12-05T23:11:43.565Z,6.57
2022-12-05T23:24:13.745Z,6.56
2022-12-05T23:26:44.812Z,6.60
2022-12-05T23:29:14.392Z,6.58
2022-12-05T23:31:44.046Z,6.57
2022-12-05T23:34:13.666Z,6.56
2022-12-05T23:36:43.885Z,6.55
2022-12-05T23:41:44.184Z,6.53
2022-12-05T23:51:43.735Z,6.52
2022-12-05T23:54:13.632Z,6.53
